KDHT/DHT METAR and TAF weather

Enter ICAO airport designator
Station Type Date Time Source
KDHT METAR 2022/06/28 15:53 UTC NOAA

KDHT 281553Z AUTO 21013KT 8SM CLR 24/12 A3033 RMK AO2 SLP225 T02390117


Station Type Date Time Source
KDHT Decoded METAR 2022/06/28 15:53 UTC NOAA

DALHART MUNICIPAL AIRPORT, TX, United States (KDHT) 36-01N 102-33W 1217M
Jun 28, 2022 - 11:53 AM EDT / 2022.06.28 1553 UTC
Wind: from the SSW (210 degrees) at 15 MPH (13 KT):0
Visibility: 8 mile(s):0
Sky conditions: clear
Temperature: 75.0 F (23.9 C)
Dew Point: 53.1 F (11.7 C)
Relative Humidity: 46%
Pressure (altimeter): 30.33 in. Hg (1027 hPa)
ob: KDHT 281553Z AUTO 21013KT 8SM CLR 24/12 A3033 RMK AO2 SLP225 T02390117
cycle: 16

Station Type Date Time Source
KDHT TAF 2022/06/28 12:28 UTC NOAA

TAF KDHT 281125Z 2812/2912 19007KT P6SM SCT250
FM281500 20014KT P6SM FEW250
FM282000 15012KT P6SM FEW250

Example: see airport list